Gobles, Michigan
Current Conditions -  °F | °C
As of 12:15 PM on Saturday 25 Oct 2014 (Local Time) from KLWA Reporting Station
Clear Clear  
Wind Chill: 62°   Ceiling: Unl
Heat Index: 62°   Visibility: 7mi
Dew Point: 54°   Wind: 12mph
Humidity: 76%   Direction: 290°WNW
Pressure: 29.91"   Gusts: 18mph
Location:  42.36°N, 85.88°W
Report Text: KLWA 251615Z AUTO 29010G16KT 7SM CLR 17/12 A2991 RMK AO2 T01670124
Loading
Personal Weather Stations






























Interactive Weather Map
Tropical Storm Tracking
New forecast layout! Learn more

10-Day Weather Forecast

Advertisements
Track Severe Weather on mobile